Time;durP1;ratioP1;P1;durP2;ratioP2;P2;SDS_P1;SDS_P2;PMS_P1;PMS_P2;Temp;Humidity;BMP_temperature;BMP_pressure;BME280_temperature;BME280_humidity;BME280_pressure;Samples;Min_cycle;Max_cycle;Signal;HPM_P1;HPM_P2
2022/10/17 00:02:24;;;;;;;3.13;2.17;;;;;;;;;;5145298;27;20038;-57
2022/10/17 00:05:07;;;;;;;3.05;1.63;;;;;;;;;;5127896;27;20064;-58
2022/10/17 00:13:57;;;;;;;2.67;1.55;;;;;;;;;;5043693;28;20035;-57
2022/10/17 00:16:40;;;;;;;3.60;1.73;;;;;;;;;;5099331;27;20041;-57
2022/10/17 00:19:27;;;;;;;2.03;1.40;;;;;;;;;;5147052;27;20445;-54
2022/10/17 00:22:34;;;;;;;3.40;1.67;;;;;;;;;;5147105;27;20024;-57
2022/10/17 00:25:31;;;;;;;2.85;1.58;;;;;;;;;;5147125;27;20029;-57
2022/10/17 00:28:03;;;;;;;2.28;1.50;;;;;;;;;;5147391;27;20031;-57
2022/10/17 00:30:41;;;;;;;2.55;1.70;;;;;;;;;;5147158;27;20092;-57
2022/10/17 00:33:19;;;;;;;3.25;1.75;;;;;;;;;;5147290;27;20030;-58
2022/10/17 00:39:12;;;;;;;2.72;1.58;;;;;;;;;;5070168;27;20042;-56
2022/10/17 00:41:59;;;;;;;2.65;1.67;;;;;;;;;;5146886;27;20029;-58
2022/10/17 00:44:49;;;;;;;1.90;1.27;;;;;;;;;;5147061;27;20050;-58
2022/10/17 00:47:39;;;;;;;3.00;1.85;;;;;;;;;;5146511;27;20035;-57
2022/10/17 00:53:34;;;;;;;3.50;2.30;;;;;;;;;;5103792;28;20038;-58
2022/10/17 00:56:25;;;;;;;5.78;1.77;;;;;;;;;;5086938;28;20098;-58
2022/10/17 00:59:30;;;;;;;3.22;1.80;;;;;;;;;;5104658;28;20047;-58
2022/10/17 01:02:08;;;;;;;3.15;1.88;;;;;;;;;;5104502;28;20517;-57
2022/10/17 01:08:21;;;;;;;2.60;1.77;;;;;;;;;;5082710;28;20047;-57
2022/10/17 01:20:30;;;;;;;3.15;2.30;;;;;;;;;;5083972;28;20058;-57
2022/10/17 01:26:30;;;;;;;3.38;2.40;;;;;;;;;;5119583;28;20039;-57
2022/10/17 01:29:02;;;;;;;3.80;2.15;;;;;;;;;;5125411;28;20048;-57
2022/10/17 01:31:47;;;;;;;3.30;1.90;;;;;;;;;;5124586;28;20119;-58
2022/10/17 01:34:55;;;;;;;3.70;2.20;;;;;;;;;;5125276;28;20036;-58
2022/10/17 01:37:30;;;;;;;3.65;1.98;;;;;;;;;;5059252;28;20048;-56
2022/10/17 01:46:53;;;;;;;3.45;2.45;;;;;;;;;;5119529;28;20119;-57
2022/10/17 01:52:48;;;;;;;;;;;;;;;;;;;;;
2022/10/17 01:55:48;;;;;;;;;;;;;;;;;;;;;
2022/10/17 01:58:39;;;;;;;4.25;2.22;;;;;;;;;;5109872;28;20067;-57
2022/10/17 02:04:24;;;;;;;2.28;1.45;;;;;;;;;;5117368;28;20036;-58
2022/10/17 02:13:29;;;;;;;2.53;1.55;;;;;;;;;;5055716;28;20155;-58
2022/10/17 02:22:34;;;;;;;4.72;2.53;;;;;;;;;;5052976;28;20029;-57
2022/10/17 02:25:22;;;;;;;3.42;2.38;;;;;;;;;;5106602;28;20025;-57
2022/10/17 02:30:58;;;;;;;3.10;1.92;;;;;;;;;;5106912;28;20398;-58
2022/10/17 02:34:03;;;;;;;2.97;1.95;;;;;;;;;;5107103;28;20043;-58
2022/10/17 02:36:40;;;;;;;3.33;1.75;;;;;;;;;;5046974;28;20042;-58
2022/10/17 02:45:25;;;;;;;4.53;2.80;;;;;;;;;;5149979;27;20042;-58
2022/10/17 02:48:13;;;;;;;3.22;1.98;;;;;;;;;;5150378;27;20027;-57
2022/10/17 02:51:13;;;;;;;3.17;1.88;;;;;;;;;;5149409;27;20019;-57
2022/10/17 02:54:20;;;;;;;2.45;1.73;;;;;;;;;;5149801;27;20096;-58
2022/10/17 02:57:38;;;;;;;3.22;2.03;;;;;;;;;;5046992;28;20066;-57
2022/10/17 03:00:23;;;;;;;5.43;2.00;;;;;;;;;;4987929;28;20050;-57
2022/10/17 03:06:43;;;;;;;3.50;1.95;;;;;;;;;;4939483;28;20090;-57
2022/10/17 03:09:21;;;;;;;2.08;1.50;;;;;;;;;;4928945;29;20036;-58
2022/10/17 03:18:15;;;;;;;2.22;1.27;;;;;;;;;;5099135;28;20381;-55
2022/10/17 03:20:59;;;;;;;3.35;1.65;;;;;;;;;;5075853;28;20030;-57
2022/10/17 03:23:47;;;;;;;;;;;;;;;;;;;;;
2022/10/17 03:26:31;;;;;;;3.13;1.80;;;;;;;;;;5124565;28;20448;-57
2022/10/17 03:32:05;;;;;;;2.80;1.63;;;;;;;;;;5076601;28;20556;-54
2022/10/17 03:34:46;;;;;;;3.78;1.98;;;;;;;;;;5074303;28;20513;-57
2022/10/17 03:37:22;;;;;;;7.18;1.85;;;;;;;;;;5074668;28;20049;-57
2022/10/17 03:39:56;;;;;;;2.88;1.85;;;;;;;;;;5074509;28;20033;-57
2022/10/17 03:42:51;;;;;;;3.72;2.50;;;;;;;;;;5074784;28;20061;-58
2022/10/17 03:45:33;;;;;;;3.30;2.50;;;;;;;;;;5071491;28;20431;-57
2022/10/17 03:48:11;;;;;;;2.47;1.88;;;;;;;;;;5074080;28;20060;-57
2022/10/17 03:51:37;;;;;;;;;;;;;;;;;;;;;
2022/10/17 03:54:16;;;;;;;2.97;1.88;;;;;;;;;;5028542;28;20120;-57
2022/10/17 04:02:58;;;;;;;;;;;;;;;;;;;;;
2022/10/17 04:05:26;;;;;;;3.55;2.03;;;;;;;;;;5021568;28;20040;-58
2022/10/17 04:08:10;;;;;;;2.65;1.90;;;;;;;;;;5033819;28;20509;-58
2022/10/17 04:10:54;;;;;;;3.67;2.10;;;;;;;;;;5033857;28;20198;-57
2022/10/17 04:13:47;;;;;;;2.72;1.83;;;;;;;;;;5046573;28;20068;-57
2022/10/17 04:25:57;;;;;;;3.97;2.00;;;;;;;;;;5129872;27;20540;-57
2022/10/17 04:31:34;;;;;;;3.80;1.98;;;;;;;;;;5035723;28;20116;-56
2022/10/17 04:34:35;;;;;;;3.08;2.05;;;;;;;;;;5056462;28;20036;-57
2022/10/17 04:37:30;;;;;;;3.70;3.38;;;;;;;;;;5068390;28;20091;-57
2022/10/17 04:43:52;;;;;;;4.63;2.08;;;;;;;;;;5024184;28;20083;-57
2022/10/17 04:46:24;;;;;;;6.38;2.17;;;;;;;;;;5032750;28;20124;-58
2022/10/17 04:58:40;;;;;;;6.10;2.45;;;;;;;;;;5039320;28;20068;-57
2022/10/17 05:01:38;;;;;;;3.45;2.35;;;;;;;;;;5070970;28;20051;-56
2022/10/17 05:04:27;;;;;;;5.65;3.05;;;;;;;;;;5072603;28;20048;-58
2022/10/17 05:10:12;;;;;;;3.95;2.97;;;;;;;;;;5120893;27;20376;-59
2022/10/17 05:13:07;;;;;;;2.95;2.15;;;;;;;;;;5099029;27;20476;-57
2022/10/17 05:15:47;;;;;;;7.43;3.33;;;;;;;;;;5130426;27;20039;-57
2022/10/17 05:18:38;;;;;;;2.75;2.08;;;;;;;;;;5135932;27;20058;-57
2022/10/17 05:21:14;;;;;;;3.33;2.50;;;;;;;;;;5092145;28;20063;-57
2022/10/17 05:27:04;;;;;;;5.35;2.72;;;;;;;;;;5074824;28;20081;-58
2022/10/17 05:29:32;;;;;;;5.13;2.80;;;;;;;;;;5092707;28;20090;-57
2022/10/17 05:32:10;;;;;;;2.97;2.20;;;;;;;;;;5092375;28;20037;-58
2022/10/17 05:34:53;;;;;;;5.47;3.03;;;;;;;;;;5075150;28;20561;-57
2022/10/17 05:37:53;;;;;;;;;;;;;;;;;;;;;
2022/10/17 05:40:34;;;;;;;3.00;2.08;;;;;;;;;;5045808;28;20139;-58
2022/10/17 05:43:28;;;;;;;2.47;2.20;;;;;;;;;;5058287;28;20351;-58
2022/10/17 05:46:16;;;;;;;3.88;2.72;;;;;;;;;;5089272;28;20033;-57
2022/10/17 05:54:57;;;;;;;4.97;3.65;;;;;;;;;;5056256;28;20051;-58
2022/10/17 06:03:45;;;;;;;5.30;3.75;;;;;;;;;;5139273;27;20031;-57
2022/10/17 06:21:56;;;;;;;4.88;2.63;;;;;;;;;;5143982;27;20038;-60
2022/10/17 06:24:53;;;;;;;4.95;3.03;;;;;;;;;;5130548;28;20031;-60
2022/10/17 06:27:55;;;;;;;;;;;;;;;;;;;;;
2022/10/17 06:30:53;;;;;;;6.30;3.00;;;;;;;;;;5148351;27;20128;-60
2022/10/17 06:37:13;;;;;;;4.22;2.92;;;;;;;;;;5054005;28;20072;-58
2022/10/17 06:39:51;;;;;;;4.30;3.22;;;;;;;;;;5050278;28;20032;-58
2022/10/17 06:42:18;;;;;;;3.50;2.92;;;;;;;;;;5054653;28;20031;-58
2022/10/17 06:45:24;;;;;;;3.33;2.60;;;;;;;;;;5104093;27;20023;-58
2022/10/17 06:51:00;;;;;;;13.10;2.67;;;;;;;;;;5131589;27;20065;-58
2022/10/17 06:53:35;;;;;;;4.18;2.88;;;;;;;;;;5135732;27;20393;-58
2022/10/17 06:56:19;;;;;;;4.60;3.30;;;;;;;;;;5137650;27;20035;-58
2022/10/17 07:02:05;;;;;;;5.97;3.13;;;;;;;;;;5129909;27;20027;-58
2022/10/17 07:05:20;;;;;;;5.05;2.95;;;;;;;;;;5138243;27;20027;-58
2022/10/17 07:11:04;;;;;;;5.13;2.65;;;;;;;;;;5137605;27;20433;-58
2022/10/17 07:13:37;;;;;;;5.93;3.72;;;;;;;;;;5136584;27;20051;-59
2022/10/17 07:16:38;;;;;;;4.10;3.13;;;;;;;;;;5117093;27;20043;-59
2022/10/17 07:19:35;;;;;;;6.07;3.20;;;;;;;;;;5137668;27;20030;-59
2022/10/17 07:25:05;;;;;;;;;;;;;;;;;;;;;
2022/10/17 07:30:59;;;;;;;6.00;3.85;;;;;;;;;;5137214;27;20042;-59
2022/10/17 07:36:39;;;;;;;7.53;3.15;;;;;;;;;;5122279;27;20500;-59
2022/10/17 07:39:39;;;;;;;4.68;2.30;;;;;;;;;;5142866;27;20031;-59
2022/10/17 07:42:32;;;;;;;6.90;2.85;;;;;;;;;;5132692;27;20503;-59
2022/10/17 07:45:17;;;;;;;4.18;2.28;;;;;;;;;;5151302;27;20439;-59
2022/10/17 07:47:49;;;;;;;2.88;2.20;;;;;;;;;;5150476;27;20084;-59
2022/10/17 07:50:36;;;;;;;3.42;1.73;;;;;;;;;;5127641;27;20059;-59
2022/10/17 07:53:39;;;;;;;3.83;2.55;;;;;;;;;;5151227;27;20034;-59
2022/10/17 07:56:37;;;;;;;6.32;2.28;;;;;;;;;;5151049;27;20088;-59
2022/10/17 08:02:42;;;;;;;8.73;3.25;;;;;;;;;;5067036;28;20033;-60
2022/10/17 08:05:32;;;;;;;3.05;2.03;;;;;;;;;;5150221;27;20027;-60
2022/10/17 08:08:04;;;;;;;4.78;2.78;;;;;;;;;;5150722;27;20046;-57
2022/10/17 08:20:13;;;;;;;3.40;2.22;;;;;;;;;;5064048;28;20056;-58
2022/10/17 08:23:00;;;;;;;4.97;3.13;;;;;;;;;;5087465;28;20036;-58
2022/10/17 08:25:39;;;;;;;6.55;3.55;;;;;;;;;;5087279;28;20088;-58
2022/10/17 08:28:08;;;;;;;3.60;2.42;;;;;;;;;;5076522;28;20517;-58
2022/10/17 08:30:43;;;;;;;3.35;2.13;;;;;;;;;;5106728;28;20035;-60
2022/10/17 08:33:39;;;;;;;2.13;1.35;;;;;;;;;;5071564;28;20032;-60
2022/10/17 08:36:14;;;;;;;3.47;1.75;;;;;;;;;;5107308;28;20032;-59
2022/10/17 08:38:59;;;;;;;3.60;2.08;;;;;;;;;;5107867;28;20036;-59
2022/10/17 08:41:35;;;;;;;3.60;2.22;;;;;;;;;;5107231;28;20025;-59
2022/10/17 08:44:29;;;;;;;6.05;2.83;;;;;;;;;;5106923;28;20036;-59
2022/10/17 08:50:23;;;;;;;3.00;2.05;;;;;;;;;;5107026;28;20032;-59
2022/10/17 08:56:00;;;;;;;;;;;;;;;;;;5066408;28;20447;-59
2022/10/17 08:58:47;;;;;;;7.05;2.60;;;;;;;;;;5110684;28;19904;-59
2022/10/17 09:01:50;;;;;;;4.25;2.35;;;;;;;;;;5101347;28;20035;-59
2022/10/17 09:07:42;;;;;;;3.55;1.80;;;;;;;;;;5129242;28;20053;-57
2022/10/17 09:10:42;;;;;;;6.47;2.97;;;;;;;;;;5128605;28;20023;-58
2022/10/17 09:16:32;;;;;;;3.72;2.65;;;;;;;;;;5135145;27;20039;-58
2022/10/17 09:19:13;;;;;;;4.38;2.47;;;;;;;;;;5148459;27;20027;-58
2022/10/17 09:21:56;;;;;;;4.15;2.80;;;;;;;;;;5149696;27;20027;-58
2022/10/17 09:24:35;;;;;;;2.83;2.25;;;;;;;;;;5149506;27;20342;-58
2022/10/17 09:33:52;;;;;;;2.75;1.90;;;;;;;;;;5149041;28;20045;-58
2022/10/17 09:36:39;;;;;;;2.53;1.90;;;;;;;;;;5149059;28;20030;-58
2022/10/17 09:39:34;;;;;;;6.18;2.42;;;;;;;;;;5143661;28;20091;-58
2022/10/17 09:42:17;;;;;;;4.40;2.15;;;;;;;;;;5104620;28;20131;-58
2022/10/17 09:45:18;;;;;;;3.10;2.47;;;;;;;;;;5116219;28;20029;-58
2022/10/17 09:50:47;;;;;;;9.25;2.42;;;;;;;;;;5134950;28;20515;-58
2022/10/17 09:53:29;;;;;;;5.28;1.73;;;;;;;;;;5135233;28;20057;-59
2022/10/17 09:56:03;;;;;;;2.53;1.98;;;;;;;;;;5134995;28;20020;-58
2022/10/17 10:01:41;;;;;;;3.67;1.73;;;;;;;;;;5051121;28;20029;-58
2022/10/17 10:04:42;;;;;;;3.55;1.58;;;;;;;;;;5125427;28;20054;-58
2022/10/17 10:07:27;;;;;;;2.92;1.75;;;;;;;;;;5135700;28;20503;-59
2022/10/17 10:09:54;;;;;;;2.55;1.33;;;;;;;;;;5135204;28;20058;-58
2022/10/17 10:12:42;;;;;;;4.07;2.05;;;;;;;;;;5131000;28;20037;-59
2022/10/17 10:15:36;;;;;;;3.80;1.95;;;;;;;;;;5116095;27;20042;-59
2022/10/17 10:18:25;;;;;;;2.38;1.75;;;;;;;;;;5113903;28;20066;-58
2022/10/17 10:21:14;;;;;;;3.05;2.28;;;;;;;;;;5064671;28;20435;-58
2022/10/17 10:26:57;;;;;;;3.00;1.92;;;;;;;;;;5113622;28;20096;-59
2022/10/17 10:29:46;;;;;;;7.80;2.20;;;;;;;;;;5095258;28;20023;-59
2022/10/17 10:32:40;;;;;;;3.40;1.83;;;;;;;;;;5096041;28;20477;-58
2022/10/17 10:35:25;;;;;;;3.25;1.75;;;;;;;;;;5114162;28;20024;-59
2022/10/17 10:37:59;;;;;;;7.63;2.17;;;;;;;;;;5114274;28;20126;-59
2022/10/17 10:40:41;;;;;;;4.93;2.45;;;;;;;;;;5116768;28;20024;-59
2022/10/17 10:46:39;;;;;;;3.53;1.52;;;;;;;;;;5118000;28;20564;-59
2022/10/17 10:49:31;;;;;;;5.45;2.28;;;;;;;;;;5067163;28;20032;-59
2022/10/17 10:52:20;;;;;;;2.25;1.48;;;;;;;;;;5118489;28;20022;-59
2022/10/17 10:55:17;;;;;;;2.45;1.50;;;;;;;;;;5118197;28;20045;-59
2022/10/17 10:58:17;;;;;;;;;;;;;;;;;;;;;
2022/10/17 11:04:31;;;;;;;2.67;1.52;;;;;;;;;;5103641;28;20062;-59
2022/10/17 11:07:23;;;;;;;6.63;1.58;;;;;;;;;;5099188;28;20102;-59
2022/10/17 11:13:13;;;;;;;5.78;1.30;;;;;;;;;;5034413;28;20040;-59
2022/10/17 11:15:45;;;;;;;8.35;1.70;;;;;;;;;;5097693;27;20043;-59
2022/10/17 11:25:09;;;;;;;4.00;1.52;;;;;;;;;;5034819;28;20033;-59
2022/10/17 11:27:48;;;;;;;5.18;1.98;;;;;;;;;;5138551;27;20027;-59
2022/10/17 11:30:34;;;;;;;2.95;1.60;;;;;;;;;;5138631;27;20035;-59
2022/10/17 11:33:16;;;;;;;2.55;1.48;;;;;;;;;;5136882;27;20460;-59
2022/10/17 11:36:21;;;;;;;2.35;1.48;;;;;;;;;;5084744;27;20059;-59
2022/10/17 11:39:14;;;;;;;1.60;0.88;;;;;;;;;;5138305;27;20031;-59
2022/10/17 11:42:06;;;;;;;4.38;0.95;;;;;;;;;;5139388;27;20368;-59
2022/10/17 11:44:48;;;;;;;3.80;1.98;;;;;;;;;;5141074;27;20128;-59
2022/10/17 11:47:39;;;;;;;1.75;1.02;;;;;;;;;;5117237;27;20531;-59
2022/10/17 11:50:30;;;;;;;2.10;1.08;;;;;;;;;;5116484;27;20388;-59
2022/10/17 11:53:03;;;;;;;2.60;1.40;;;;;;;;;;5136818;27;20042;-59
2022/10/17 11:59:10;;;;;;;1.38;0.80;;;;;;;;;;5052736;28;20430;-58
2022/10/17 12:05:00;;;;;;;5.03;1.42;;;;;;;;;;5052990;28;20392;-59
2022/10/17 12:07:54;;;;;;;2.80;1.10;;;;;;;;;;5101061;27;20504;-59
2022/10/17 12:10:52;;;;;;;2.00;1.13;;;;;;;;;;5136005;27;20066;-59
2022/10/17 12:13:46;;;;;;;2.53;1.17;;;;;;;;;;5100034;27;20522;-59
2022/10/17 12:19:36;;;;;;;4.25;1.30;;;;;;;;;;5136579;27;20088;-59
2022/10/17 12:22:07;;;;;;;5.17;1.03;;;;;;;;;;5136049;27;20034;-59
2022/10/17 12:25:10;;;;;;;3.53;1.60;;;;;;;;;;5132906;27;20058;-59
2022/10/17 12:27:58;;;;;;;2.33;1.23;;;;;;;;;;5118574;27;20027;-59
2022/10/17 12:30:54;;;;;;;2.20;1.00;;;;;;;;;;5136276;27;20479;-59
2022/10/17 12:34:01;;;;;;;;;;;;;;;;;;;;;
2022/10/17 12:36:41;;;;;;;2.63;1.17;;;;;;;;;;5135620;27;20033;-59
2022/10/17 12:39:16;;;;;;;5.13;1.05;;;;;;;;;;5116974;27;20065;-58
2022/10/17 12:41:51;;;;;;;1.95;1.05;;;;;;;;;;5124265;27;20449;-58
2022/10/17 12:44:33;;;;;;;;;;;;;;;;;;;;;
2022/10/17 12:47:22;;;;;;;3.97;1.27;;;;;;;;;;5075654;27;20039;-58
2022/10/17 12:49:49;;;;;;;4.18;1.83;;;;;;;;;;5129971;27;20540;-58
2022/10/17 12:52:26;;;;;;;2.22;1.38;;;;;;;;;;5083270;27;20092;-58
2022/10/17 12:55:14;;;;;;;3.97;1.30;;;;;;;;;;5089817;27;20042;-58
2022/10/17 12:58:01;;;;;;;3.72;1.40;;;;;;;;;;5134386;27;20495;-59
2022/10/17 13:01:15;;;;;;;2.45;1.35;;;;;;;;;;5134209;27;20111;-59
2022/10/17 13:03:56;;;;;;;;;;;;;;;;;;;;;
2022/10/17 13:06:52;;;;;;;3.10;1.40;;;;;;;;;;5115199;27;20033;-59
2022/10/17 13:09:37;;;;;;;2.92;1.38;;;;;;;;;;5136110;27;20027;-59
2022/10/17 13:12:25;;;;;;;5.38;1.63;;;;;;;;;;5136612;27;20027;-59
2022/10/17 13:15:11;;;;;;;1.55;0.85;;;;;;;;;;5132708;27;20391;-59
2022/10/17 13:21:57;;;;;;;;;;;;;;;;;;;;;
2022/10/17 13:24:28;;;;;;;2.00;0.90;;;;;;;;;;5124526;27;20087;-58
2022/10/17 13:27:20;;;;;;;7.00;1.42;;;;;;;;;;5112216;27;20028;-59
2022/10/17 13:33:42;;;;;;;1.15;0.73;;;;;;;;;;5072156;28;20040;-58
2022/10/17 13:36:38;;;;;;;1.88;0.85;;;;;;;;;;4993340;28;20038;-59
2022/10/17 13:39:37;;;;;;;2.38;1.20;;;;;;;;;;4954206;29;20085;-59
2022/10/17 13:42:29;;;;;;;3.15;1.75;;;;;;;;;;5065999;28;20442;-58
2022/10/17 13:45:29;;;;;;;5.68;2.75;;;;;;;;;;5042382;28;20551;-59
2022/10/17 13:48:16;;;;;;;;;;;;;;;;;;;;;
2022/10/17 13:50:50;;;;;;;2.20;1.60;;;;;;;;;;5071341;28;20032;-59
2022/10/17 13:57:26;;;;;;;3.85;1.83;;;;;;;;;;5039645;28;20035;-59
2022/10/17 14:00:03;;;;;;;3.70;2.33;;;;;;;;;;5135257;28;20536;-59
2022/10/17 14:02:44;;;;;;;3.92;2.03;;;;;;;;;;5115990;28;20476;-59
2022/10/17 14:05:41;;;;;;;3.03;1.60;;;;;;;;;;5135089;28;20361;-59
2022/10/17 14:08:29;;;;;;;;;;;;;;;;;;;;;
2022/10/17 14:11:27;;;;;;;2.42;1.65;;;;;;;;;;5134906;28;20114;-58
2022/10/17 14:14:49;;;;;;;;;;;;;;;;;;;;;
2022/10/17 14:17:51;;;;;;;7.10;1.63;;;;;;;;;;5138062;27;20379;-58
2022/10/17 14:20:29;;;;;;;4.63;2.10;;;;;;;;;;5119231;27;20532;-58
2022/10/17 14:23:04;;;;;;;5.22;2.05;;;;;;;;;;5138168;27;20061;-58
2022/10/17 14:26:05;;;;;;;3.22;1.48;;;;;;;;;;5137320;27;20088;-58
2022/10/17 14:28:38;;;;;;;2.58;1.48;;;;;;;;;;5105466;27;20033;-58
2022/10/17 14:31:40;;;;;;;7.13;1.88;;;;;;;;;;5119817;27;20425;-58
2022/10/17 14:37:38;;;;;;;3.58;1.60;;;;;;;;;;5046070;27;20037;-58
2022/10/17 14:43:33;;;;;;;3.47;1.75;;;;;;;;;;5034811;28;20043;-57
2022/10/17 14:46:16;;;;;;;;;;;;;;;;;;;;;
2022/10/17 14:49:11;;;;;;;3.80;1.75;;;;;;;;;;5133960;27;20027;-58
2022/10/17 14:51:59;;;;;;;3.30;1.48;;;;;;;;;;5138511;27;20386;-58
2022/10/17 14:54:38;;;;;;;;;;;;;;;;;;;;;
2022/10/17 14:57:25;;;;;;;6.47;2.25;;;;;;;;;;5137840;27;20039;-59
2022/10/17 15:00:14;;;;;;;1.95;1.23;;;;;;;;;;5118748;27;20030;-59
2022/10/17 15:06:21;;;;;;;2.70;1.58;;;;;;;;;;5046111;28;20037;-58
2022/10/17 15:08:59;;;;;;;2.63;1.67;;;;;;;;;;5116520;27;20384;-58
2022/10/17 15:11:44;;;;;;;1.50;0.77;;;;;;;;;;5119783;27;20100;-57
2022/10/17 15:14:28;;;;;;;5.05;1.40;;;;;;;;;;5137251;27;20051;-58
2022/10/17 15:17:33;;;;;;;2.70;1.40;;;;;;;;;;5105577;27;20422;-58
2022/10/17 15:20:29;;;;;;;6.85;1.70;;;;;;;;;;5118141;27;20477;-57
2022/10/17 15:26:18;;;;;;;2.22;1.42;;;;;;;;;;5053652;28;20119;-58
2022/10/17 15:29:12;;;;;;;2.30;1.40;;;;;;;;;;5138232;27;20038;-57
2022/10/17 15:32:00;;;;;;;3.35;1.20;;;;;;;;;;5137754;27;20030;-57
2022/10/17 15:34:56;;;;;;;5.05;1.63;;;;;;;;;;5137324;27;20024;-58
2022/10/17 15:37:45;;;;;;;2.08;1.20;;;;;;;;;;5135192;27;20096;-58
2022/10/17 15:40:51;;;;;;;2.42;1.67;;;;;;;;;;5118427;27;20122;-58
2022/10/17 15:49:45;;;;;;;4.45;2.00;;;;;;;;;;5053989;27;20066;-59
2022/10/17 15:55:38;;;;;;;2.38;1.30;;;;;;;;;;5052263;28;20116;-59
2022/10/17 15:58:13;;;;;;;3.42;1.63;;;;;;;;;;5067122;28;20522;-59
2022/10/17 16:00:40;;;;;;;6.90;1.60;;;;;;;;;;5072971;28;20033;-59
2022/10/17 16:06:24;;;;;;;2.25;1.35;;;;;;;;;;5064521;28;20124;-59
2022/10/17 16:09:22;;;;;;;3.42;1.67;;;;;;;;;;5072535;28;20031;-59
2022/10/17 16:11:54;;;;;;;2.42;1.38;;;;;;;;;;5020988;28;20098;-59
2022/10/17 16:14:56;;;;;;;3.65;2.17;;;;;;;;;;5073047;28;20024;-59
2022/10/17 16:17:31;;;;;;;3.92;2.53;;;;;;;;;;5036721;28;20052;-59
2022/10/17 16:20:21;;;;;;;4.53;2.28;;;;;;;;;;5056387;28;20052;-59
2022/10/17 16:23:19;;;;;;;3.80;2.45;;;;;;;;;;4996492;28;20141;-59
2022/10/17 16:26:01;;;;;;;3.58;1.75;;;;;;;;;;4996499;28;20541;-59
2022/10/17 16:28:50;;;;;;;3.10;1.73;;;;;;;;;;5048437;27;20038;-59
2022/10/17 16:31:35;;;;;;;2.67;1.67;;;;;;;;;;5143440;27;20497;-59
2022/10/17 16:34:23;;;;;;;4.20;2.00;;;;;;;;;;5132024;27;20039;-59
2022/10/17 16:37:02;;;;;;;6.85;1.90;;;;;;;;;;5141376;27;20031;-59
2022/10/17 16:39:51;;;;;;;3.40;2.03;;;;;;;;;;5115532;27;20124;-58
2022/10/17 16:48:38;;;;;;;2.72;1.75;;;;;;;;;;5139834;27;20069;-58
2022/10/17 16:54:03;;;;;;;6.43;1.83;;;;;;;;;;5140439;27;20041;-58
2022/10/17 16:56:50;;;;;;;3.85;2.25;;;;;;;;;;5120071;27;20043;-58
2022/10/17 17:02:14;;;;;;;3.47;2.13;;;;;;;;;;5083841;27;20523;-58
2022/10/17 17:04:42;;;;;;;4.30;2.80;;;;;;;;;;5119423;27;20031;-59
2022/10/17 17:10:18;;;;;;;3.17;2.20;;;;;;;;;;5136578;27;20083;-58
2022/10/17 17:13:21;;;;;;;;;;;;;;;;;;;;;
2022/10/17 17:15:53;;;;;;;4.72;2.08;;;;;;;;;;5072177;27;20557;-59
2022/10/17 17:24:16;;;;;;;3.22;1.92;;;;;;;;;;5145752;27;20369;-59
2022/10/17 17:27:26;;;;;;;3.13;1.83;;;;;;;;;;5140560;27;20061;-58
2022/10/17 17:33:27;;;;;;;3.80;2.40;;;;;;;;;;4991883;28;20443;-58
2022/10/17 17:36:00;;;;;;;5.47;2.63;;;;;;;;;;5027788;28;20271;-58
2022/10/17 17:41:54;;;;;;;3.65;2.20;;;;;;;;;;5092041;28;20024;-59
2022/10/17 17:44:56;;;;;;;5.82;2.33;;;;;;;;;;5127630;28;20035;-58
2022/10/17 17:50:38;;;;;;;3.72;1.80;;;;;;;;;;5056001;28;20032;-58
2022/10/17 17:53:19;;;;;;;2.67;1.83;;;;;;;;;;5125251;27;20036;-58
2022/10/17 17:56:42;;;;;;;;;;;;;;;;;;;;;
2022/10/17 17:59:51;;;;;;;;;;;;;;;;;;;;;
2022/10/17 18:02:41;;;;;;;;;;;;;;;;;;;;;
2022/10/17 18:05:10;;;;;;;6.45;2.22;;;;;;;;;;4970860;28;20040;-58
2022/10/17 18:25:30;;;;;;;4.10;2.58;;;;;;;;;;5138920;27;20262;-58
2022/10/17 18:28:07;;;;;;;8.70;2.58;;;;;;;;;;5138869;27;20027;-58
2022/10/17 18:34:13;;;;;;;6.03;2.30;;;;;;;;;;5132877;27;20460;-58
2022/10/17 18:37:03;;;;;;;3.72;2.55;;;;;;;;;;5138885;27;20077;-58
2022/10/17 18:39:47;;;;;;;;;;;;;;;;;;;;;
2022/10/17 18:42:22;;;;;;;3.95;2.72;;;;;;;;;;5135501;27;20122;-60
2022/10/17 18:45:06;;;;;;;3.65;2.53;;;;;;;;;;5120261;27;20445;-59
2022/10/17 18:48:11;;;;;;;;;;;;;;;;;;;;;
2022/10/17 18:51:00;;;;;;;4.45;2.47;;;;;;;;;;5138421;27;20118;-59
2022/10/17 18:53:48;;;;;;;11.18;3.28;;;;;;;;;;5137829;27;20118;-59
2022/10/17 19:02:11;;;;;;;6.65;3.42;;;;;;;;;;5105555;27;20037;-59
2022/10/17 19:04:50;;;;;;;5.32;3.28;;;;;;;;;;5138301;27;20027;-59
2022/10/17 19:07:31;;;;;;;4.95;3.08;;;;;;;;;;5073596;28;20044;-59
2022/10/17 19:10:03;;;;;;;;;;;;;;;;;;5074201;28;20036;-59
2022/10/17 19:12:35;;;;;;;5.05;3.03;;;;;;;;;;5057220;28;19908;-59
2022/10/17 19:18:40;;;;;;;7.38;3.08;;;;;;;;;;5058452;28;20068;-59
2022/10/17 19:21:14;;;;;;;6.78;3.38;;;;;;;;;;5054477;28;20061;-59
2022/10/17 19:24:09;;;;;;;6.65;3.70;;;;;;;;;;5046573;28;20029;-59
2022/10/17 19:26:54;;;;;;;3.70;2.83;;;;;;;;;;5053561;28;20029;-59
2022/10/17 19:29:44;;;;;;;8.77;3.55;;;;;;;;;;5051163;28;20029;-59
2022/10/17 19:35:15;;;;;;;3.35;2.78;;;;;;;;;;5023472;28;20115;-57
2022/10/17 19:37:52;;;;;;;9.23;2.70;;;;;;;;;;5054114;28;20494;-57
2022/10/17 19:40:36;;;;;;;4.63;3.00;;;;;;;;;;5053675;28;20108;-57
2022/10/17 19:43:30;;;;;;;6.15;2.35;;;;;;;;;;5054344;28;20037;-57
2022/10/17 19:49:32;;;;;;;6.43;4.23;;;;;;;;;;4990836;28;20026;-59
2022/10/17 19:52:28;;;;;;;5.57;3.92;;;;;;;;;;5065048;28;20039;-59
2022/10/17 19:55:39;;;;;;;4.60;2.88;;;;;;;;;;5111797;28;20384;-59
2022/10/17 19:58:45;;;;;;;;;;;;;;;;;;;;;
2022/10/17 20:04:23;;;;;;;3.60;2.20;;;;;;;;;;5116089;28;20076;-59
2022/10/17 20:07:10;;;;;;;6.20;2.67;;;;;;;;;;5115454;28;20034;-59
2022/10/17 20:13:15;;;;;;;4.85;2.90;;;;;;;;;;5116019;28;20485;-59
2022/10/17 20:15:56;;;;;;;4.72;2.90;;;;;;;;;;5109554;28;20090;-59
2022/10/17 20:18:24;;;;;;;4.80;3.55;;;;;;;;;;5133934;27;20055;-59
2022/10/17 20:20:56;;;;;;;8.05;2.75;;;;;;;;;;5129307;27;20106;-59
2022/10/17 20:23:36;;;;;;;6.65;2.55;;;;;;;;;;5136851;27;20102;-59
2022/10/17 20:26:20;;;;;;;5.30;3.25;;;;;;;;;;5136940;27;20023;-59
2022/10/17 20:29:19;;;;;;;2.92;2.30;;;;;;;;;;5116152;27;20366;-59
2022/10/17 20:32:21;;;;;;;;;;;;;;;;;;;;;
2022/10/17 20:35:17;;;;;;;5.40;2.67;;;;;;;;;;5033090;28;20121;-59
2022/10/17 20:37:58;;;;;;;;;;;;;;;;;;;;;
2022/10/17 20:40:58;;;;;;;5.65;2.83;;;;;;;;;;5030380;28;20038;-59
2022/10/17 20:43:44;;;;;;;5.28;3.42;;;;;;;;;;5111722;27;20038;-59
2022/10/17 20:46:31;;;;;;;5.45;3.17;;;;;;;;;;5135094;27;20080;-58
2022/10/17 20:49:30;;;;;;;;;;;;;;;;;;;;;
2022/10/17 20:52:16;;;;;;;7.07;3.97;;;;;;;;;;5136012;27;20500;-59
2022/10/17 20:55:02;;;;;;;8.20;3.65;;;;;;;;;;5131376;27;20039;-59
2022/10/17 20:58:03;;;;;;;4.78;4.00;;;;;;;;;;5136857;27;20035;-59
2022/10/17 21:09:46;;;;;;;7.30;4.20;;;;;;;;;;5128748;27;20084;-59
2022/10/17 21:12:31;;;;;;;6.32;4.05;;;;;;;;;;5096315;27;20082;-59
2022/10/17 21:18:27;;;;;;;5.28;3.67;;;;;;;;;;5125086;27;20054;-59
2022/10/17 21:21:19;;;;;;;;;;;;;;;;;;;;;
2022/10/17 21:23:59;;;;;;;7.35;4.57;;;;;;;;;;5144216;27;20061;-59
2022/10/17 21:27:04;;;;;;;;;;;;;;;;;;;;;
2022/10/17 21:30:00;;;;;;;10.32;3.28;;;;;;;;;;5085896;28;20509;-59
2022/10/17 21:32:26;;;;;;;5.30;3.70;;;;;;;;;;5085560;28;20108;-59
2022/10/17 21:34:55;;;;;;;8.57;4.13;;;;;;;;;;5141431;27;20039;-59
2022/10/17 21:41:18;;;;;;;5.38;3.33;;;;;;;;;;5149590;28;20056;-59
2022/10/17 21:44:07;;;;;;;9.38;3.42;;;;;;;;;;5064879;28;20042;-59
2022/10/17 21:46:46;;;;;;;5.57;3.15;;;;;;;;;;5148728;28;20084;-59
2022/10/17 21:49:22;;;;;;;5.65;3.95;;;;;;;;;;5148611;28;20017;-59
2022/10/17 21:52:27;;;;;;;7.40;4.00;;;;;;;;;;5148685;28;20019;-59
2022/10/17 21:55:12;;;;;;;4.88;3.42;;;;;;;;;;5118500;28;20062;-59
2022/10/17 21:58:13;;;;;;;6.95;3.95;;;;;;;;;;5148728;28;20061;-59
2022/10/17 22:00:51;;;;;;;;;;;;;;;;;;5149986;28;20556;-59
2022/10/17 22:06:35;;;;;;;4.40;3.47;;;;;;;;;;5148599;28;20031;-59
2022/10/17 22:09:08;;;;;;;4.32;3.35;;;;;;;;;;5148686;28;20031;-59
2022/10/17 22:12:06;;;;;;;5.40;4.22;;;;;;;;;;5129850;28;20023;-59
2022/10/17 22:17:26;;;;;;;6.45;3.28;;;;;;;;;;5148517;28;20074;-59
2022/10/17 22:20:14;;;;;;;5.63;3.85;;;;;;;;;;5129794;28;20053;-59
2022/10/17 22:32:22;;;;;;;6.95;4.53;;;;;;;;;;5064365;28;20156;-59
2022/10/17 22:34:50;;;;;;;10.15;3.83;;;;;;;;;;5133060;27;20039;-59
2022/10/17 22:37:27;;;;;;;7.10;4.00;;;;;;;;;;5152219;27;20100;-59
2022/10/17 22:40:25;;;;;;;6.05;3.80;;;;;;;;;;5129062;27;20042;-59
2022/10/17 22:43:14;;;;;;;4.90;3.67;;;;;;;;;;5151719;27;20066;-59
2022/10/17 22:46:14;;;;;;;;;;;;;;;;;;;;;
2022/10/17 22:49:05;;;;;;;9.65;4.63;;;;;;;;;;5151808;27;20053;-59
2022/10/17 22:51:49;;;;;;;10.13;4.53;;;;;;;;;;5151172;27;20030;-59
2022/10/17 22:57:45;;;;;;;7.72;4.30;;;;;;;;;;5067597;28;20045;-59
2022/10/17 23:00:17;;;;;;;10.90;3.78;;;;;;;;;;5087499;27;20073;-59
2022/10/17 23:03:09;;;;;;;6.13;4.18;;;;;;;;;;5133097;27;20019;-59
2022/10/17 23:06:10;;;;;;;6.97;3.53;;;;;;;;;;5067932;28;20037;-59
2022/10/17 23:14:42;;;;;;;6.53;4.15;;;;;;;;;;5151031;27;20026;-59
2022/10/17 23:20:22;;;;;;;6.38;4.20;;;;;;;;;;5136396;27;20035;-59
2022/10/17 23:26:12;;;;;;;10.18;4.28;;;;;;;;;;5117010;27;20047;-57
2022/10/17 23:35:01;;;;;;;8.45;4.20;;;;;;;;;;5106619;27;20065;-57
2022/10/17 23:40:30;;;;;;;5.95;4.20;;;;;;;;;;5145771;27;20061;-57
2022/10/17 23:43:44;;;;;;;7.47;4.10;;;;;;;;;;5132957;27;20050;-57
2022/10/17 23:46:40;;;;;;;6.07;3.80;;;;;;;;;;5046729;28;20064;-57